Nancy M — WDF3398 — position and weather

sailwx.info

Track history (hours):
 
Tides and Currents Weather Stations Pressure Air Temp Water Temp Dewpoint Dewpoint Depression Visibility Wind Speed Wind Dir Waves Ship Positions

Nancy M

Owner: MANSON CONSTRUCTION CO., SEATTLE, WA. More information available from US FCC via Universal Licensing System and Coast Guard Vessel Documentation Center.

Last reported at 2015-Jul-01 20:28 UTC. Time now 2015-Jul-02 03:42 UTC.
Position N 48°17' W 122°37'.

Length 24 m; draft 4 m.

Type: Tug. MMSI: 367439390.

Date/timePositionNaut miles runAvg speedWind from/ knotsBaromVisibWave heightAir tempDewpointWater temp
2015-Jul-01 20:28N 48°17' W 122°37'0 0.0
2015-Jul-01 14:28N 48°17' W 122°37'  
2015-Jun-24 12:18N 48°17' W 122°37'0 0.0
2015-Jun-24 07:32N 48°17' W 122°37'0 0.0
2015-Jun-24 06:14N 48°17' W 122°37'0 0.0
2015-Jun-24 04:18N 48°17' W 122°37'0 0.0
2015-Jun-24 03:30N 48°17' W 122°37'0 0.0
2015-Jun-24 02:22N 48°17' W 122°37'0 0.0
2015-Jun-24 02:16N 48°17' W 122°37'0 0.3
2015-Jun-24 01:33N 48°17' W 122°37'8 8.2
2015-Jun-24 00:33N 48°09' W 122°32'9 9.4
2015-Jun-23 23:33N 48°02' W 122°23'410.4
2015-Jun-23 23:11N 47°59' W 122°21'610.0
2015-Jun-23 22:33N 47°53' W 122°22'1 9.9
2015-Jun-23 22:30N 47°52' W 122°22'1010.6
2015-Jun-23 21:33N 47°42' W 122°26'111.0
2015-Jun-23 21:30N 47°42' W 122°26'9 9.1
2015-Jun-23 20:33N 47°34' W 122°21'0 6.6
2015-Jun-23 20:30N 47°34' W 122°21'2 1.9
2015-Jun-23 19:33N 47°35' W 122°22'111.0
2015-Jun-23 19:30N 47°36' W 122°22'512.0
2015-Jun-23 19:06N 47°40' W 122°27'0 9.3
2015-Jun-23 19:05N 47°40' W 122°27'31 1.0
2015-Jun-22 12:10N 48°10' W 122°33'6 6.2
2015-Jun-22 11:13N 48°05' W 122°28'4 6.0
2015-Jun-22 10:33N 48°03' W 122°23'6 5.9
2015-Jun-22 09:33N 47°58' W 122°20'6 5.7
2015-Jun-22 08:33N 47°52' W 122°23'7 6.5
2015-Jun-22 07:33N 47°46' W 122°25'7 6.9
2015-Jun-22 06:33N 47°39' W 122°26'5 4.5
2015-Jun-22 05:33N 47°35' W 122°22'0 0.1
2015-Jun-22 04:33N 47°35' W 122°22'  
Track history (hours):
 
Tides and Currents Weather Stations Pressure Air Temp Water Temp Dewpoint Dewpoint Depression Visibility Wind Speed Wind Dir Waves Ship Positions

Nancy M

Owner: MANSON CONSTRUCTION CO., SEATTLE, WA. More information available from US FCC via Universal Licensing System and Coast Guard Vessel Documentation Center.

Last reported at 2015-Jul-01 20:28 UTC. Time now 2015-Jul-02 03:42 UTC.
Position N 48°17' W 122°37'.

Length 24 m; draft 4 m.

Type: Tug. MMSI: 367439390.

Date/timePositionNaut miles runAvg speedWind from/ knotsBaromVisibWave heightAir tempDewpointWater temp
2015-Jul-01 20:28N 48°17' W 122°37'0 0.0
2015-Jul-01 14:28N 48°17' W 122°37'  
2015-Jun-24 12:18N 48°17' W 122°37'0 0.0
2015-Jun-24 07:32N 48°17' W 122°37'0 0.0
2015-Jun-24 06:14N 48°17' W 122°37'0 0.0
2015-Jun-24 04:18N 48°17' W 122°37'0 0.0
2015-Jun-24 03:30N 48°17' W 122°37'0 0.0
2015-Jun-24 02:22N 48°17' W 122°37'0 0.0
2015-Jun-24 02:16N 48°17' W 122°37'0 0.3
2015-Jun-24 01:33N 48°17' W 122°37'8 8.2
2015-Jun-24 00:33N 48°09' W 122°32'9 9.4
2015-Jun-23 23:33N 48°02' W 122°23'410.4
2015-Jun-23 23:11N 47°59' W 122°21'610.0
2015-Jun-23 22:33N 47°53' W 122°22'1 9.9
2015-Jun-23 22:30N 47°52' W 122°22'1010.6
2015-Jun-23 21:33N 47°42' W 122°26'111.0
2015-Jun-23 21:30N 47°42' W 122°26'9 9.1
2015-Jun-23 20:33N 47°34' W 122°21'0 6.6
2015-Jun-23 20:30N 47°34' W 122°21'2 1.9
2015-Jun-23 19:33N 47°35' W 122°22'111.0
2015-Jun-23 19:30N 47°36' W 122°22'512.0
2015-Jun-23 19:06N 47°40' W 122°27'0 9.3
2015-Jun-23 19:05N 47°40' W 122°27'31 1.0
2015-Jun-22 12:10N 48°10' W 122°33'6 6.2
2015-Jun-22 11:13N 48°05' W 122°28'4 6.0
2015-Jun-22 10:33N 48°03' W 122°23'6 5.9
2015-Jun-22 09:33N 47°58' W 122°20'6 5.7
2015-Jun-22 08:33N 47°52' W 122°23'7 6.5
2015-Jun-22 07:33N 47°46' W 122°25'7 6.9
2015-Jun-22 06:33N 47°39' W 122°26'5 4.5
2015-Jun-22 05:33N 47°35' W 122°22'0 0.1
2015-Jun-22 04:33N 47°35' W 122°22'  

Dump ship's entire track history